Time,TemperatureF,DewpointF,PressureIn,WindDirection,WindDirectionDegrees,WindSpeedMPH,WindSpeedGustMPH,Humidity,HourlyPrecipIn,Conditions,Clouds,dailyrainin,SoftwareType,DateUTC
2013-06-13 00:02:00,57.6,53.1,29.89,East,96,1.0,2.0,85,0.00,,,0.00,Wunderground v.1.15,2013-06-13 04:02:00,
2013-06-13 00:04:00,57.5,53.0,29.89,East,95,2.0,2.0,85,0.00,,,0.00,Wunderground v.1.15,2013-06-13 04:04:00,
2013-06-13 00:06:00,57.4,53.2,29.89,East,96,2.0,2.0,86,0.00,,,0.00,Wunderground v.1.15,2013-06-13 04:06:00,
2013-06-13 00:10:00,57.3,53.1,29.89,East,96,2.0,2.0,86,0.00,,,0.00,Wunderground v.1.15,2013-06-13 04:10:00,
2013-06-13 00:12:00,57.3,53.1,29.89,East,95,2.0,2.0,86,0.00,,,0.00,Wunderground v.1.15,2013-06-13 04:12:00,
2013-06-13 00:18:00,57.3,53.1,29.89,East,95,2.0,2.0,86,0.00,,,0.00,Wunderground v.1.15,2013-06-13 04:18:00,
2013-06-13 00:24:00,57.6,53.1,29.88,ESE,105,2.0,2.0,85,0.00,,,0.00,Wunderground v.1.15,2013-06-13 04:24:00,
2013-06-13 00:30:00,57.7,53.2,29.88,ESE,105,2.0,2.0,85,0.00,,,0.00,Wunderground v.1.15,2013-06-13 04:30:00,
2013-06-13 00:36:00,57.7,53.5,29.88,ESE,104,1.0,2.0,86,0.00,,,0.00,Wunderground v.1.15,2013-06-13 04:36:00,
2013-06-13 00:42:00,57.6,53.4,29.89,East,98,1.0,2.0,86,0.00,,,0.00,Wunderground v.1.15,2013-06-13 04:42:00,
2013-06-13 00:48:00,57.5,53.3,29.89,ESE,105,2.0,2.0,86,0.00,,,0.00,Wunderground v.1.15,2013-06-13 04:48:00,
2013-06-13 00:54:00,57.6,53.4,29.89,ESE,115,2.0,2.0,86,0.00,,,0.00,Wunderground v.1.15,2013-06-13 04:54:00,
2013-06-13 01:00:00,57.9,53.7,29.89,ESE,115,1.0,1.0,86,0.00,,,0.00,Wunderground v.1.15,2013-06-13 05:00:00,
2013-06-13 01:06:00,57.6,53.4,29.89,ESE,109,1.0,2.0,86,0.00,,,0.00,Wunderground v.1.15,2013-06-13 05:06:00,
2013-06-13 01:12:00,57.5,53.3,29.89,ESE,108,1.0,1.0,86,0.00,,,0.00,Wunderground v.1.15,2013-06-13 05:12:00,
2013-06-13 01:18:00,57.5,53.0,29.89,ESE,108,1.0,1.0,85,0.00,,,0.00,Wunderground v.1.15,2013-06-13 05:18:00,
2013-06-13 01:24:00,57.4,53.2,29.89,ESE,104,1.0,1.0,86,0.00,,,0.00,Wunderground v.1.15,2013-06-13 05:24:00,
2013-06-13 01:30:00,57.1,53.3,29.88,East,97,1.0,1.0,87,0.00,,,0.00,Wunderground v.1.15,2013-06-13 05:30:00,
2013-06-13 01:36:00,57.1,53.0,29.88,East,97,1.0,1.0,86,0.00,,,0.00,Wunderground v.1.15,2013-06-13 05:36:00,
2013-06-13 01:42:00,57.2,53.0,29.87,East,98,1.0,1.0,86,0.00,,,0.00,Wunderground v.1.15,2013-06-13 05:42:00,
2013-06-13 01:48:00,57.1,53.0,29.87,East,98,1.0,1.0,86,0.00,,,0.00,Wunderground v.1.15,2013-06-13 05:48:00,
2013-06-13 01:54:00,57.0,53.2,29.87,East,97,1.0,1.0,87,0.00,,,0.00,Wunderground v.1.15,2013-06-13 05:54:00,
2013-06-13 02:00:00,56.7,53.2,29.86,East,97,1.0,1.0,88,0.00,,,0.00,Wunderground v.1.15,2013-06-13 06:00:00,
2013-06-13 02:06:00,56.7,52.9,29.86,ESE,106,1.0,2.0,87,0.00,,,0.00,Wunderground v.1.15,2013-06-13 06:06:00,
2013-06-13 02:12:00,56.7,53.2,29.86,ESE,105,1.0,1.0,88,0.00,,,0.00,Wunderground v.1.15,2013-06-13 06:12:00,
2013-06-13 02:18:00,56.9,53.4,29.86,ESE,105,1.0,1.0,88,0.00,,,0.00,Wunderground v.1.15,2013-06-13 06:18:00,
2013-06-13 02:24:00,56.7,53.2,29.87,ESE,104,1.0,1.0,88,0.00,,,0.00,Wunderground v.1.15,2013-06-13 06:24:00,
2013-06-13 02:30:00,56.8,53.3,29.86,East,92,1.0,1.0,88,0.00,,,0.00,Wunderground v.1.15,2013-06-13 06:30:00,
2013-06-13 02:36:00,56.7,53.2,29.87,East,92,1.0,1.0,88,0.00,,,0.00,Wunderground v.1.15,2013-06-13 06:36:00,
2013-06-13 02:42:00,56.6,53.4,29.87,East,92,0.0,1.0,89,0.00,,,0.00,Wunderground v.1.15,2013-06-13 06:42:00,
2013-06-13 02:48:00,56.4,52.9,29.88,East,92,1.0,1.0,88,0.00,,,0.00,Wunderground v.1.15,2013-06-13 06:48:00,
2013-06-13 02:54:00,56.2,53.0,29.88,East,92,1.0,1.0,89,0.00,,,0.00,Wunderground v.1.15,2013-06-13 06:54:00,
2013-06-13 03:00:00,55.8,52.9,29.87,East,92,1.0,1.0,90,0.00,,,0.00,Wunderground v.1.15,2013-06-13 07:00:00,
2013-06-13 03:06:00,55.7,52.8,29.87,East,92,0.0,1.0,90,0.00,,,0.00,Wunderground v.1.15,2013-06-13 07:06:00,
2013-06-13 03:12:00,55.5,52.9,29.86,East,93,0.0,1.0,91,0.00,,,0.00,Wunderground v.1.15,2013-06-13 07:12:00,
2013-06-13 03:18:00,55.7,53.1,29.85,ESE,114,1.0,1.0,91,0.00,,,0.00,Wunderground v.1.15,2013-06-13 07:18:00,
2013-06-13 08:18:00,57.5,55.8,29.82,ESE,102,0.0,0.0,94,0.00,,,0.03,Wunderground v.1.15,2013-06-13 12:18:00,
2013-06-13 08:24:00,57.5,55.8,29.81,East,101,0.0,0.0,94,0.06,,,0.04,Wunderground v.1.15,2013-06-13 12:24:00,
2013-06-13 08:30:00,57.7,56.0,29.81,SW,236,0.0,0.0,94,0.06,,,0.04,Wunderground v.1.15,2013-06-13 12:30:00,
2013-06-13 08:36:00,57.8,56.1,29.80,SW,219,0.0,2.0,94,0.05,,,0.05,Wunderground v.1.15,2013-06-13 12:36:00,
2013-06-13 08:42:00,57.9,56.2,29.81,SE,146,0.0,0.0,94,0.05,,,0.05,Wunderground v.1.15,2013-06-13 12:42:00,
2013-06-13 08:48:00,57.9,56.2,29.81,West,280,0.0,0.0,94,0.05,,,0.06,Wunderground v.1.15,2013-06-13 12:48:00,
2013-06-13 08:54:00,57.9,56.2,29.81,NE,39,0.0,1.0,94,0.13,,,0.07,Wunderground v.1.15,2013-06-13 12:54:00,
2013-06-13 09:00:00,57.9,56.2,29.81,NNE,30,0.0,1.0,94,0.09,,,0.08,Wunderground v.1.15,2013-06-13 13:00:00,
2013-06-13 09:06:00,58.0,56.3,29.81,NW,325,0.0,3.0,94,0.08,,,0.09,Wunderground v.1.15,2013-06-13 13:06:00,
2013-06-13 09:12:00,58.1,56.4,29.81,ENE,68,0.0,0.0,94,0.10,,,0.10,Wunderground v.1.15,2013-06-13 13:12:00,
2013-06-13 09:18:00,58.2,56.8,29.81,ENE,68,0.0,0.0,95,0.09,,,0.10,Wunderground v.1.15,2013-06-13 13:18:00,
2013-06-13 09:24:00,58.4,57.0,29.80,ENE,66,0.0,0.0,95,0.09,,,0.11,Wunderground v.1.15,2013-06-13 13:24:00,
2013-06-13 09:30:00,58.2,56.5,29.79,WNW,298,0.0,1.0,94,0.06,,,0.12,Wunderground v.1.15,2013-06-13 13:30:00,
2013-06-13 09:36:00,58.1,56.4,29.80,WSW,251,0.0,1.0,94,0.06,,,0.12,Wunderground v.1.15,2013-06-13 13:36:00,
2013-06-13 09:42:00,58.2,56.8,29.79,West,262,0.0,0.0,95,0.05,,,0.12,Wunderground v.1.15,2013-06-13 13:42:00,
2013-06-13 09:48:00,58.2,56.5,29.79,NNW,342,0.0,0.0,94,0.00,,,0.12,Wunderground v.1.15,2013-06-13 13:48:00,
2013-06-13 09:54:00,58.0,56.3,29.80,ESE,122,0.0,2.0,94,0.00,,,0.12,Wunderground v.1.15,2013-06-13 13:54:00,
2013-06-13 10:00:00,58.0,56.3,29.79,SSW,203,0.0,0.0,94,0.00,,,0.12,Wunderground v.1.15,2013-06-13 14:00:00,
2013-06-13 10:06:00,57.9,56.2,29.78,WSW,245,0.0,3.0,94,0.00,,,0.13,Wunderground v.1.15,2013-06-13 14:06:00,
2013-06-13 10:12:00,57.8,56.1,29.78,ESE,108,0.0,0.0,94,0.00,,,0.13,Wunderground v.1.15,2013-06-13 14:12:00,
2013-06-13 10:18:00,57.8,56.4,29.79,WSW,246,0.0,1.0,95,0.04,,,0.14,Wunderground v.1.15,2013-06-13 14:18:00,
2013-06-13 10:24:00,57.7,56.3,29.81,West,261,0.0,1.0,95,0.44,,,0.17,Wunderground v.1.15,2013-06-13 14:24:00,
2013-06-13 10:30:00,57.6,56.2,29.82,North,2,1.0,1.0,95,0.27,,,0.20,Wunderground v.1.15,2013-06-13 14:30:00,
2013-06-13 10:36:00,57.6,56.2,29.77,East,89,1.0,1.0,95,0.40,,,0.23,Wunderground v.1.15,2013-06-13 14:36:00,
2013-06-13 10:42:00,57.4,56.0,29.76,NE,56,0.0,2.0,95,0.13,,,0.24,Wunderground v.1.15,2013-06-13 14:42:00,
2013-06-13 10:48:00,57.2,55.8,29.77,WSW,245,1.0,2.0,95,0.11,,,0.25,Wunderground v.1.15,2013-06-13 14:48:00,
2013-06-13 10:54:00,57.1,55.7,29.77,NE,34,1.0,1.0,95,0.05,,,0.25,Wunderground v.1.15,2013-06-13 14:54:00,
2013-06-13 11:00:00,57.1,55.7,29.77,West,274,1.0,2.0,95,0.05,,,0.26,Wunderground v.1.15,2013-06-13 15:00:00,
2013-06-13 11:06:00,57.1,55.7,29.76,West,278,1.0,4.0,95,0.06,,,0.27,Wunderground v.1.15,2013-06-13 15:06:00,
2013-06-13 11:12:00,57.1,55.7,29.75,West,274,1.0,1.0,95,0.09,,,0.28,Wunderground v.1.15,2013-06-13 15:12:00,
2013-06-13 11:18:00,57.2,55.8,29.74,North,6,1.0,1.0,95,0.09,,,0.28,Wunderground v.1.15,2013-06-13 15:18:00,
2013-06-13 11:24:00,57.2,55.8,29.74,NNW,328,0.0,2.0,95,0.06,,,0.29,Wunderground v.1.15,2013-06-13 15:24:00,
2013-06-13 11:30:00,57.4,56.0,29.74,NW,305,1.0,1.0,95,0.06,,,0.29,Wunderground v.1.15,2013-06-13 15:30:00,
2013-06-13 11:36:00,57.3,55.9,29.73,East,84,1.0,2.0,95,0.05,,,0.30,Wunderground v.1.15,2013-06-13 15:36:00,
2013-06-13 11:42:00,57.4,56.0,29.72,SSW,212,1.0,1.0,95,0.05,,,0.30,Wunderground v.1.15,2013-06-13 15:42:00,
2013-06-13 11:48:00,57.5,56.1,29.73,SSE,147,1.0,1.0,95,0.04,,,0.31,Wunderground v.1.15,2013-06-13 15:48:00,
2013-06-13 11:54:00,57.4,56.0,29.73,NW,320,1.0,4.0,95,0.04,,,0.31,Wunderground v.1.15,2013-06-13 15:54:00,
2013-06-13 12:00:00,57.5,55.8,29.74,WNW,285,1.0,1.0,94,0.05,,,0.32,Wunderground v.1.15,2013-06-13 16:00:00,
2013-06-13 12:06:00,57.5,55.8,29.74,West,262,1.0,9.0,94,0.05,,,0.32,Wunderground v.1.15,2013-06-13 16:06:00,
2013-06-13 12:12:00,57.5,55.8,29.74,WNW,285,1.0,1.0,94,0.04,,,0.32,Wunderground v.1.15,2013-06-13 16:12:00,
2013-06-13 12:18:00,57.4,55.7,29.74,NW,304,1.0,1.0,94,0.00,,,0.32,Wunderground v.1.15,2013-06-13 16:18:00,
2013-06-13 12:24:00,57.4,56.0,29.73,East,94,1.0,1.0,95,0.00,,,0.33,Wunderground v.1.15,2013-06-13 16:24:00,
2013-06-13 12:30:00,57.4,56.0,29.73,SW,215,1.0,2.0,95,0.00,,,0.33,Wunderground v.1.15,2013-06-13 16:30:00,
2013-06-13 12:36:00,57.4,56.0,29.73,SE,128,1.0,2.0,95,0.00,,,0.33,Wunderground v.1.15,2013-06-13 16:36:00,
2013-06-13 12:42:00,57.5,56.1,29.73,NNW,335,1.0,3.0,95,0.00,,,0.33,Wunderground v.1.15,2013-06-13 16:42:00,
2013-06-13 12:48:00,57.7,56.3,29.71,NW,324,1.0,3.0,95,0.00,,,0.33,Wunderground v.1.15,2013-06-13 16:48:00,
2013-06-13 12:54:00,57.8,56.1,29.71,NW,314,1.0,2.0,94,0.00,,,0.33,Wunderground v.1.15,2013-06-13 16:54:00,
2013-06-13 13:00:00,57.9,56.2,29.69,SSW,207,1.0,1.0,94,0.00,,,0.33,Wunderground v.1.15,2013-06-13 17:00:00,
2013-06-13 13:06:00,58.0,56.3,29.69,NE,51,2.0,5.0,94,0.00,,,0.33,Wunderground v.1.15,2013-06-13 17:06:00,
2013-06-13 13:12:00,58.2,56.2,29.68,North,357,2.0,3.0,93,0.00,,,0.33,Wunderground v.1.15,2013-06-13 17:12:00,
2013-06-13 13:18:00,58.5,56.5,29.67,SE,146,2.0,3.0,93,0.00,,,0.33,Wunderground v.1.15,2013-06-13 17:18:00,
2013-06-13 13:24:00,59.2,57.5,29.67,SSW,204,1.0,3.0,94,0.00,,,0.33,Wunderground v.1.15,2013-06-13 17:24:00,
2013-06-13 13:30:00,59.8,57.8,29.67,NNE,27,2.0,2.0,93,0.00,,,0.33,Wunderground v.1.15,2013-06-13 17:30:00,
2013-06-13 13:36:00,59.7,57.1,29.68,ENE,74,2.0,6.0,91,0.00,,,0.33,Wunderground v.1.15,2013-06-13 17:36:00,
2013-06-13 13:42:00,59.6,57.0,29.67,NW,311,2.0,2.0,91,0.00,,,0.33,Wunderground v.1.15,2013-06-13 17:42:00,
2013-06-13 13:48:00,59.7,57.4,29.67,East,100,2.0,3.0,92,0.00,,,0.33,Wunderground v.1.15,2013-06-13 17:48:00,
2013-06-13 13:54:00,59.5,56.9,29.67,East,88,2.0,4.0,91,0.00,,,0.33,Wunderground v.1.15,2013-06-13 17:54:00,
2013-06-13 14:00:00,59.2,56.3,29.67,NNE,16,2.0,2.0,90,0.00,,,0.33,Wunderground v.1.15,2013-06-13 18:00:00,
2013-06-13 14:06:00,59.0,56.1,29.68,NW,325,2.0,7.0,90,0.00,,,0.33,Wunderground v.1.15,2013-06-13 18:06:00,
2013-06-13 14:12:00,58.8,55.9,29.68,ESE,103,2.0,3.0,90,0.00,,,0.33,Wunderground v.1.15,2013-06-13 18:12:00,
2013-06-13 14:18:00,58.7,56.4,29.68,West,269,1.0,3.0,92,0.00,,,0.33,Wunderground v.1.15,2013-06-13 18:18:00,
2013-06-13 14:24:00,58.5,56.2,29.67,NE,45,1.0,2.0,92,0.00,,,0.33,Wunderground v.1.15,2013-06-13 18:24:00,
2013-06-13 14:30:00,58.4,56.1,29.67,ESE,104,1.0,1.0,92,0.00,,,0.33,Wunderground v.1.15,2013-06-13 18:30:00,
2013-06-13 14:36:00,58.5,56.2,29.67,WNW,300,1.0,3.0,92,0.00,,,0.33,Wunderground v.1.15,2013-06-13 18:36:00,
2013-06-13 14:42:00,58.4,55.8,29.67,WSW,251,2.0,5.0,91,0.00,,,0.33,Wunderground v.1.15,2013-06-13 18:42:00,
2013-06-13 14:48:00,58.5,55.9,29.67,NNW,335,2.0,5.0,91,0.00,,,0.33,Wunderground v.1.15,2013-06-13 18:48:00,
2013-06-13 14:54:00,58.5,55.9,29.67,East,96,2.0,5.0,91,0.00,,,0.33,Wunderground v.1.15,2013-06-13 18:54:00,
2013-06-13 15:00:00,58.5,55.9,29.67,South,169,2.0,2.0,91,0.00,,,0.33,Wunderground v.1.15,2013-06-13 19:00:00,
2013-06-13 15:06:00,58.5,55.9,29.66,West,281,1.0,12.0,91,0.00,,,0.33,Wunderground v.1.15,2013-06-13 19:06:00,
2013-06-13 15:12:00,58.4,55.8,29.65,WNW,293,1.0,3.0,91,0.00,,,0.33,Wunderground v.1.15,2013-06-13 19:12:00,
2013-06-13 15:18:00,58.4,55.8,29.65,NE,40,2.0,4.0,91,0.00,,,0.33,Wunderground v.1.15,2013-06-13 19:18:00,
2013-06-13 15:24:00,58.3,56.0,29.64,East,79,2.0,4.0,92,0.00,,,0.33,Wunderground v.1.15,2013-06-13 19:24:00,
2013-06-13 15:30:00,58.3,56.0,29.65,ESE,111,2.0,2.0,92,0.00,,,0.33,Wunderground v.1.15,2013-06-13 19:30:00,
2013-06-13 15:36:00,58.2,55.9,29.65,NW,316,2.0,2.0,92,0.00,,,0.33,Wunderground v.1.15,2013-06-13 19:36:00,
2013-06-13 15:42:00,58.0,56.0,29.65,WNW,293,2.0,2.0,93,0.00,,,0.33,Wunderground v.1.15,2013-06-13 19:42:00,
2013-06-13 15:48:00,57.9,55.9,29.65,ENE,65,1.0,2.0,93,0.00,,,0.33,Wunderground v.1.15,2013-06-13 19:48:00,
2013-06-13 15:54:00,57.8,55.8,29.64,ENE,76,1.0,2.0,93,0.00,,,0.33,Wunderground v.1.15,2013-06-13 19:54:00,
2013-06-13 16:00:00,57.7,55.7,29.64,WNW,293,2.0,2.0,93,0.00,,,0.34,Wunderground v.1.15,2013-06-13 20:00:00,
2013-06-13 16:06:00,57.6,55.9,29.64,WNW,297,2.0,8.0,94,0.00,,,0.34,Wunderground v.1.15,2013-06-13 20:06:00,
2013-06-13 16:12:00,57.5,55.8,29.64,SE,136,1.0,1.0,94,0.00,,,0.34,Wunderground v.1.15,2013-06-13 20:12:00,
2013-06-13 16:18:00,57.5,55.8,29.64,SSW,210,1.0,3.0,94,0.00,,,0.34,Wunderground v.1.15,2013-06-13 20:18:00,
2013-06-13 16:24:00,57.5,55.8,29.64,ENE,65,1.0,1.0,94,0.00,,,0.35,Wunderground v.1.15,2013-06-13 20:24:00,
2013-06-13 16:30:00,57.4,55.7,29.64,NW,314,1.0,1.0,94,0.00,,,0.35,Wunderground v.1.15,2013-06-13 20:30:00,
2013-06-13 16:36:00,57.4,56.0,29.64,SE,145,1.0,2.0,95,0.04,,,0.36,Wunderground v.1.15,2013-06-13 20:36:00,
2013-06-13 16:42:00,57.3,55.9,29.64,WNW,283,2.0,2.0,95,0.04,,,0.36,Wunderground v.1.15,2013-06-13 20:42:00,
2013-06-13 16:48:00,57.3,55.9,29.63,NNE,32,1.0,2.0,95,0.04,,,0.36,Wunderground v.1.15,2013-06-13 20:48:00,
2013-06-13 16:54:00,57.3,55.9,29.64,ENE,77,1.0,1.0,95,0.04,,,0.37,Wunderground v.1.15,2013-06-13 20:54:00,
2013-06-13 17:00:00,57.3,55.9,29.63,East,100,1.0,1.0,95,0.04,,,0.37,Wunderground v.1.15,2013-06-13 21:00:00,
2013-06-13 17:06:00,57.2,55.8,29.63,SE,124,1.0,11.0,95,0.04,,,0.38,Wunderground v.1.15,2013-06-13 21:06:00,
2013-06-13 17:12:00,57.2,55.8,29.63,SSE,162,1.0,1.0,95,0.10,,,0.39,Wunderground v.1.15,2013-06-13 21:12:00,
2013-06-13 17:18:00,57.1,55.7,29.63,NNE,12,1.0,2.0,95,0.14,,,0.40,Wunderground v.1.15,2013-06-13 21:18:00,
2013-06-13 17:24:00,57.1,55.7,29.63,ESE,103,1.0,1.0,95,0.18,,,0.43,Wunderground v.1.15,2013-06-13 21:24:00,
2013-06-13 17:30:00,57.1,55.7,29.62,WNW,285,1.0,1.0,95,0.12,,,0.44,Wunderground v.1.15,2013-06-13 21:30:00,
2013-06-13 17:36:00,57.1,55.7,29.62,East,82,1.0,3.0,95,0.12,,,0.45,Wunderground v.1.15,2013-06-13 21:36:00,
2013-06-13 17:42:00,57.1,55.7,29.62,ENE,59,0.0,0.0,95,0.08,,,0.45,Wunderground v.1.15,2013-06-13 21:42:00,
2013-06-13 17:48:00,57.0,55.9,29.62,North,10,1.0,1.0,96,0.11,,,0.46,Wunderground v.1.15,2013-06-13 21:48:00,
2013-06-13 17:54:00,56.9,55.8,29.62,WNW,302,0.0,1.0,96,0.12,,,0.48,Wunderground v.1.15,2013-06-13 21:54:00,
2013-06-13 18:00:00,56.9,55.8,29.62,NW,304,0.0,0.0,96,0.10,,,0.49,Wunderground v.1.15,2013-06-13 22:00:00,
2013-06-13 18:06:00,56.8,55.7,29.62,NW,310,1.0,6.0,96,0.14,,,0.50,Wunderground v.1.15,2013-06-13 22:06:00,
2013-06-13 18:12:00,56.7,55.6,29.62,North,4,1.0,2.0,96,0.20,,,0.52,Wunderground v.1.15,2013-06-13 22:12:00,
2013-06-13 18:18:00,56.6,55.5,29.62,NNE,15,1.0,2.0,96,0.21,,,0.55,Wunderground v.1.15,2013-06-13 22:18:00,
2013-06-13 18:24:00,56.6,55.5,29.63,WNW,290,1.0,2.0,96,0.21,,,0.57,Wunderground v.1.15,2013-06-13 22:24:00,
2013-06-13 18:30:00,56.7,55.6,29.63,NNE,27,1.0,1.0,96,0.12,,,0.58,Wunderground v.1.15,2013-06-13 22:30:00,
2013-06-13 18:36:00,56.7,55.6,29.63,NNE,15,0.0,1.0,96,0.13,,,0.59,Wunderground v.1.15,2013-06-13 22:36:00,
2013-06-13 18:42:00,56.6,55.5,29.63,North,4,0.0,0.0,96,0.18,,,0.61,Wunderground v.1.15,2013-06-13 22:42:00,
2013-06-13 18:48:00,56.5,55.4,29.63,SSE,152,0.0,2.0,96,0.22,,,0.63,Wunderground v.1.15,2013-06-13 22:48:00,
2013-06-13 18:54:00,56.4,55.3,29.63,SE,134,1.0,1.0,96,0.19,,,0.65,Wunderground v.1.15,2013-06-13 22:54:00,
2013-06-13 19:00:00,56.3,55.2,29.64,NE,44,1.0,1.0,96,0.25,,,0.68,Wunderground v.1.15,2013-06-13 23:00:00,
2013-06-13 19:06:00,56.1,55.0,29.63,NE,40,1.0,5.0,96,0.32,,,0.72,Wunderground v.1.15,2013-06-13 23:06:00,
2013-06-13 19:12:00,56.1,55.0,29.64,NE,37,1.0,1.0,96,0.15,,,0.73,Wunderground v.1.15,2013-06-13 23:12:00,
2013-06-13 19:18:00,56.0,54.9,29.64,NNW,331,1.0,4.0,96,0.18,,,0.75,Wunderground v.1.15,2013-06-13 23:18:00,
2013-06-13 19:24:00,55.9,54.8,29.63,North,11,1.0,2.0,96,0.29,,,0.78,Wunderground v.1.15,2013-06-13 23:24:00,
2013-06-13 19:30:00,55.8,54.7,29.63,NE,34,1.0,6.0,96,0.17,,,0.80,Wunderground v.1.15,2013-06-13 23:30:00,
2013-06-13 19:36:00,55.7,54.6,29.63,ENE,75,2.0,6.0,96,0.17,,,0.82,Wunderground v.1.15,2013-06-13 23:36:00,
2013-06-13 19:42:00,55.7,54.6,29.63,WNW,299,1.0,2.0,96,0.17,,,0.84,Wunderground v.1.15,2013-06-13 23:42:00,
2013-06-13 19:48:00,55.6,54.5,29.63,NE,55,1.0,2.0,96,0.14,,,0.85,Wunderground v.1.15,2013-06-13 23:48:00,
2013-06-13 19:54:00,55.5,54.4,29.63,SSW,203,1.0,1.0,96,0.35,,,0.88,Wunderground v.1.15,2013-06-13 23:54:00,
2013-06-13 20:00:00,55.5,54.4,29.63,ESE,120,0.0,0.0,96,0.21,,,0.90,Wunderground v.1.15,2013-06-14 00:00:00,
2013-06-13 20:06:00,55.4,54.3,29.63,SSE,148,1.0,5.0,96,0.32,,,0.93,Wunderground v.1.15,2013-06-14 00:06:00,
2013-06-13 20:12:00,55.3,54.2,29.63,ESE,115,1.0,3.0,96,0.46,,,0.98,Wunderground v.1.15,2013-06-14 00:12:00,
2013-06-13 20:18:00,55.1,54.0,29.64,North,11,1.0,3.0,96,0.89,,,1.05,Wunderground v.1.15,2013-06-14 00:18:00,
2013-06-13 20:24:00,55.0,53.9,29.64,NE,56,1.0,3.0,96,0.39,,,1.08,Wunderground v.1.15,2013-06-14 00:24:00,
2013-06-13 20:30:00,55.0,53.9,29.65,NNE,14,1.0,1.0,96,0.40,,,1.12,Wunderground v.1.15,2013-06-14 00:30:00,
2013-06-13 20:36:00,54.9,53.8,29.65,North,11,0.0,1.0,96,0.26,,,1.14,Wunderground v.1.15,2013-06-14 00:36:00,
2013-06-13 20:42:00,54.9,53.8,29.65,WNW,295,1.0,1.0,96,0.21,,,1.16,Wunderground v.1.15,2013-06-14 00:42:00,
2013-06-13 20:48:00,54.9,53.8,29.65,East,90,1.0,2.0,96,0.14,,,1.17,Wunderground v.1.15,2013-06-14 00:48:00,
2013-06-13 20:54:00,54.9,53.8,29.65,NNE,32,1.0,3.0,96,0.15,,,1.19,Wunderground v.1.15,2013-06-14 00:54:00,
2013-06-13 21:00:00,54.8,53.7,29.65,NNE,32,1.0,3.0,96,0.11,,,1.20,Wunderground v.1.15,2013-06-14 01:00:00,
2013-06-13 21:06:00,54.8,54.0,29.65,NNW,342,1.0,9.0,97,0.07,,,1.20,Wunderground v.1.15,2013-06-14 01:06:00,
2013-06-13 21:12:00,54.7,53.9,29.65,NW,318,0.0,1.0,97,0.05,,,1.21,Wunderground v.1.15,2013-06-14 01:12:00,
2013-06-13 21:18:00,54.7,53.9,29.65,NE,53,1.0,2.0,97,0.05,,,1.21,Wunderground v.1.15,2013-06-14 01:18:00,
2013-06-13 21:24:00,54.7,53.9,29.65,WSW,255,1.0,1.0,97,0.04,,,1.21,Wunderground v.1.15,2013-06-14 01:24:00,
2013-06-13 21:30:00,54.6,53.8,29.65,SSE,148,0.0,1.0,97,0.00,,,1.22,Wunderground v.1.15,2013-06-14 01:30:00,
2013-06-13 21:36:00,54.3,53.2,29.65,NE,52,1.0,6.0,96,0.00,,,1.22,Wunderground v.1.15,2013-06-14 01:36:00,
2013-06-13 21:42:00,54.3,53.5,29.65,WNW,293,2.0,2.0,97,0.00,,,1.22,Wunderground v.1.15,2013-06-14 01:42:00,
2013-06-13 21:48:00,54.2,53.1,29.65,NE,44,1.0,2.0,96,0.00,,,1.22,Wunderground v.1.15,2013-06-14 01:48:00,
2013-06-13 21:54:00,54.1,53.0,29.66,ESE,112,1.0,1.0,96,0.00,,,1.22,Wunderground v.1.15,2013-06-14 01:54:00,
2013-06-13 22:00:00,53.9,52.8,29.66,ESE,105,0.0,0.0,96,0.00,,,1.22,Wunderground v.1.15,2013-06-14 02:00:00,
2013-06-13 22:06:00,53.9,52.8,29.66,NE,38,0.0,10.0,96,0.00,,,1.22,Wunderground v.1.15,2013-06-14 02:06:00,
2013-06-13 22:12:00,53.8,52.7,29.66,NNE,12,1.0,2.0,96,0.00,,,1.23,Wunderground v.1.15,2013-06-14 02:12:00,
2013-06-13 22:18:00,53.7,52.6,29.66,WNW,303,1.0,4.0,96,0.06,,,1.24,Wunderground v.1.15,2013-06-14 02:18:00,
2013-06-13 22:24:00,53.6,52.5,29.66,NNW,330,1.0,1.0,96,0.06,,,1.24,Wunderground v.1.15,2013-06-14 02:24:00,
2013-06-13 22:30:00,53.6,52.5,29.66,NNE,33,0.0,0.0,96,0.07,,,1.25,Wunderground v.1.15,2013-06-14 02:30:00,
2013-06-13 22:36:00,53.5,52.4,29.65,NW,314,0.0,2.0,96,0.06,,,1.25,Wunderground v.1.15,2013-06-14 02:36:00,
2013-06-13 22:42:00,53.4,52.3,29.66,NNW,327,1.0,1.0,96,0.05,,,1.26,Wunderground v.1.15,2013-06-14 02:42:00,
2013-06-13 22:48:00,53.2,52.1,29.65,North,354,1.0,1.0,96,0.08,,,1.27,Wunderground v.1.15,2013-06-14 02:48:00,
2013-06-13 22:54:00,53.2,52.1,29.66,North,6,1.0,6.0,96,0.09,,,1.28,Wunderground v.1.15,2013-06-14 02:54:00,
2013-06-13 23:00:00,53.1,52.0,29.65,NNW,333,1.0,1.0,96,0.09,,,1.29,Wunderground v.1.15,2013-06-14 03:00:00,
2013-06-13 23:06:00,53.0,52.2,29.66,NNE,18,1.0,6.0,97,0.11,,,1.30,Wunderground v.1.15,2013-06-14 03:06:00,
2013-06-13 23:12:00,52.9,52.1,29.66,NNW,330,1.0,1.0,97,0.10,,,1.31,Wunderground v.1.15,2013-06-14 03:12:00,
2013-06-13 23:18:00,52.7,51.9,29.66,NNE,17,1.0,1.0,97,0.08,,,1.32,Wunderground v.1.15,2013-06-14 03:18:00,
2013-06-13 23:24:00,52.6,51.8,29.66,NNE,14,1.0,2.0,97,0.08,,,1.32,Wunderground v.1.15,2013-06-14 03:24:00,
2013-06-13 23:30:00,52.6,51.8,29.66,NNW,340,1.0,1.0,97,0.07,,,1.33,Wunderground v.1.15,2013-06-14 03:30:00,
2013-06-13 23:36:00,52.5,51.7,29.66,NE,53,0.0,1.0,97,0.09,,,1.34,Wunderground v.1.15,2013-06-14 03:36:00,
2013-06-13 23:42:00,52.4,51.6,29.66,North,11,1.0,1.0,97,0.11,,,1.35,Wunderground v.1.15,2013-06-14 03:42:00,
2013-06-13 23:48:00,52.4,51.6,29.66,NNW,335,1.0,1.0,97,0.09,,,1.36,Wunderground v.1.15,2013-06-14 03:48:00,
2013-06-13 23:54:00,52.3,51.5,29.66,NW,319,0.0,2.0,97,0.08,,,1.37,Wunderground v.1.15,2013-06-14 03:54:00,